Time;durP1;ratioP1;P1;durP2;ratioP2;P2;SDS_P1;SDS_P2;PMS_P1;PMS_P2;Temp;Humidity;BMP_temperature;BMP_pressure;BME280_temperature;BME280_humidity;BME280_pressure;Samples;Min_cycle;Max_cycle;Signal;HPM_P1;HPM_P2
2023/09/25 00:00:34;;;;;;;12.70;7.50;;;;;;;18.59;75.74;101829.52;108624;1254;95818;-61
2023/09/25 00:03:23;;;;;;;19.00;8.50;;;;;;;18.63;75.54;101826.80;108670;1254;96049;-61
2023/09/25 00:05:51;;;;;;;15.10;8.50;;;;;;;18.64;75.62;101822.45;108660;1253;111634;-61
2023/09/25 00:08:20;;;;;;;17.30;8.10;;;;;;;18.65;75.51;101814.55;107878;1254;108982;-60
2023/09/25 00:10:48;;;;;;;16.70;8.30;;;;;;;18.69;75.32;101815.52;107303;1251;107310;-60
2023/09/25 00:13:16;;;;;;;16.10;7.40;;;;;;;18.74;75.35;101811.23;108242;1256;96427;-61
2023/09/25 00:15:46;;;;;;;14.00;7.50;;;;;;;18.74;75.11;101807.55;107262;1255;97755;-60
2023/09/25 00:18:15;;;;;;;13.80;7.50;;;;;;;18.75;75.26;101809.30;107329;1254;111769;-60
2023/09/25 00:20:44;;;;;;;13.20;7.70;;;;;;;18.72;75.14;101806.09;108141;1252;110148;-60
2023/09/25 00:23:12;;;;;;;12.40;7.60;;;;;;;18.72;75.22;101802.48;107300;1254;108213;-60
2023/09/25 00:25:41;;;;;;;15.90;7.90;;;;;;;18.73;75.34;101804.25;107324;1256;97717;-60
2023/09/25 00:28:09;;;;;;;12.60;8.20;;;;;;;18.67;75.46;101802.50;107256;1254;98366;-60
2023/09/25 00:30:38;;;;;;;17.00;8.10;;;;;;;18.62;75.49;101805.41;107282;1253;111354;-60
2023/09/25 00:33:06;;;;;;;17.90;7.40;;;;;;;18.57;75.69;101802.88;107571;1254;109965;-60
2023/09/25 00:35:36;;;;;;;13.70;7.90;;;;;;;18.55;75.83;101805.57;107245;1256;108248;-60
2023/09/25 00:38:04;;;;;;;15.60;7.70;;;;;;;18.57;75.72;101803.92;108650;1254;95566;-60
2023/09/25 00:40:32;;;;;;;14.10;7.50;;;;;;;18.62;76.30;101801.04;108642;1251;96174;-61
2023/09/25 00:43:00;;;;;;;16.70;7.50;;;;;;;18.58;76.37;101800.86;107774;1253;112123;-60
2023/09/25 00:45:30;;;;;;;17.50;7.50;;;;;;;18.55;76.61;101799.41;107272;1254;110036;-61
2023/09/25 00:47:59;;;;;;;13.10;7.50;;;;;;;18.54;76.87;101796.83;107227;1255;109449;-59
2023/09/25 00:50:30;;;;;;;14.90;7.70;;;;;;;18.54;76.95;101798.94;108607;1254;95665;-60
2023/09/25 00:53:07;;;;;;;13.10;8.20;;;;;;;18.58;77.22;101791.84;108615;1254;96197;-61
2023/09/25 00:55:36;;;;;;;14.60;7.10;;;;;;;18.54;78.13;101796.12;108637;1251;110676;-60
2023/09/25 00:58:06;;;;;;;15.70;8.00;;;;;;;18.48;77.40;101794.92;108626;1254;108883;-60
2023/09/25 01:00:35;;;;;;;12.80;7.20;;;;;;;18.53;77.46;101796.01;108622;1255;108620;-61
2023/09/25 01:03:05;;;;;;;17.40;7.90;;;;;;;18.58;77.34;101796.52;108526;1254;95893;-61
2023/09/25 01:05:37;;;;;;;14.80;8.00;;;;;;;18.61;77.86;101796.75;107260;1257;98457;-60
2023/09/25 01:08:07;;;;;;;15.10;7.80;;;;;;;18.58;78.13;101796.57;107285;1255;111846;-61
2023/09/25 01:10:36;;;;;;;15.50;7.50;;;;;;;18.55;78.30;101792.30;107309;1255;109766;-61
2023/09/25 01:13:05;;;;;;;12.00;7.00;;;;;;;18.52;78.43;101793.89;107227;1257;107353;-61
2023/09/25 01:15:34;;;;;;;12.30;7.70;;;;;;;18.47;78.85;101800.95;108507;1255;95813;-61
2023/09/25 01:18:03;;;;;;;16.70;7.80;;;;;;;18.40;79.36;101800.48;107323;1254;97930;-61
2023/09/25 01:20:31;;;;;;;14.90;8.60;;;;;;;18.32;80.05;101801.15;107271;1256;112306;-59
2023/09/25 01:22:59;;;;;;;17.00;8.40;;;;;;;18.26;80.68;101801.59;107230;1254;109339;-61
2023/09/25 01:25:27;;;;;;;16.70;7.90;;;;;;;18.19;81.08;101800.70;107265;1256;108284;-61
2023/09/25 01:27:56;;;;;;;17.00;8.20;;;;;;;18.16;81.46;101798.95;107992;1258;98954;-61
2023/09/25 01:30:24;;;;;;;15.00;8.40;;;;;;;18.16;81.02;101796.98;107241;1256;97752;-61
2023/09/25 01:32:52;;;;;;;13.60;8.30;;;;;;;18.13;82.45;101803.42;107227;1254;111423;-61
2023/09/25 01:35:26;;;;;;;22.20;8.60;;;;;;;18.06;82.76;101805.42;107256;1257;109163;-60
2023/09/25 01:37:57;;;;;;;20.60;8.80;;;;;;;18.04;82.48;101807.10;108061;1254;106738;-61
2023/09/25 01:40:26;;;;;;;13.40;8.30;;;;;;;18.05;82.97;101801.96;108611;1255;95609;-61
2023/09/25 01:42:55;;;;;;;14.30;8.40;;;;;;;18.04;82.63;101803.52;108659;1254;96080;-60
2023/09/25 01:45:23;;;;;;;12.80;8.70;;;;;;;18.04;83.08;101802.05;108664;1254;110800;-61
2023/09/25 01:47:53;;;;;;;15.20;7.70;;;;;;;18.04;82.84;101805.30;108652;1254;110129;-60
2023/09/25 01:50:24;;;;;;;14.90;8.30;;;;;;;18.08;83.25;101806.53;108653;1254;107557;-60
2023/09/25 01:52:55;;;;;;;19.60;8.90;;;;;;;18.10;82.80;101807.95;108621;1253;95804;-60
2023/09/25 01:55:27;;;;;;;14.90;8.80;;;;;;;18.11;83.31;101813.66;108648;1251;96031;-60
2023/09/25 01:57:55;;;;;;;12.50;8.50;;;;;;;18.12;82.99;101818.77;108571;1254;110830;-62
2023/09/25 02:00:24;;;;;;;17.10;8.80;;;;;;;18.14;83.07;101820.90;107553;1254;108383;-60
2023/09/25 02:02:52;;;;;;;16.90;8.90;;;;;;;18.16;82.66;101820.23;107366;1257;106552;-61
2023/09/25 02:05:20;;;;;;;16.40;8.90;;;;;;;18.19;82.75;101827.70;107189;1254;97960;-60
2023/09/25 02:07:49;;;;;;;20.70;8.70;;;;;;;18.22;82.63;101824.34;107222;1257;97889;-60
2023/09/25 02:10:17;;;;;;;13.60;9.10;;;;;;;18.23;82.76;101822.90;107258;1254;112568;-61
2023/09/25 02:12:45;;;;;;;12.60;8.30;;;;;;;18.22;82.66;101819.45;107319;1257;109127;-61
2023/09/25 02:15:13;;;;;;;18.90;9.50;;;;;;;18.15;83.33;101820.70;107223;1254;106966;-61
2023/09/25 02:17:42;;;;;;;18.50;9.30;;;;;;;18.11;83.46;101819.05;107245;1256;97935;-60
2023/09/25 02:20:17;;;;;;;20.00;8.90;;;;;;;18.07;84.04;101824.40;107335;1257;98526;-60
2023/09/25 02:22:48;;;;;;;13.70;9.40;;;;;;;17.99;85.20;101825.99;107229;1257;110651;-60
2023/09/25 02:25:16;;;;;;;18.10;8.90;;;;;;;17.91;85.72;101828.00;107262;1255;109101;-61
2023/09/25 02:27:46;;;;;;;15.30;9.50;;;;;;;17.90;85.40;101832.16;108584;1252;107219;-61
2023/09/25 02:30:15;;;;;;;19.50;9.20;;;;;;;17.90;85.78;101834.48;107565;1255;97878;-60
2023/09/25 02:32:44;;;;;;;13.70;8.90;;;;;;;17.90;85.81;101834.45;108005;1254;98382;-60
2023/09/25 02:35:13;;;;;;;22.60;9.20;;;;;;;17.93;85.66;101839.64;107277;1254;113862;-62
2023/09/25 02:37:44;;;;;;;12.40;8.70;;;;;;;17.94;85.85;101846.76;107245;1257;109612;-60
2023/09/25 02:40:13;;;;;;;21.20;10.40;;;;;;;17.97;85.88;101849.63;108553;1255;107661;-61
2023/09/25 02:42:47;;;;;;;16.70;9.40;;;;;;;17.99;85.49;101852.09;108408;1251;95873;-61
2023/09/25 02:45:16;;;;;;;19.40;9.20;;;;;;;18.03;85.19;101853.64;107240;1254;97831;-60
2023/09/25 02:47:45;;;;;;;26.60;8.80;;;;;;;18.02;85.51;101855.23;108594;1254;112115;-61
2023/09/25 02:50:15;;;;;;;22.00;8.90;;;;;;;18.00;85.77;101852.56;108614;1256;109591;-61
2023/09/25 02:52:44;;;;;;;12.90;8.10;;;;;;;18.02;85.71;101853.05;108630;1255;108389;-61
2023/09/25 02:55:13;;;;;;;15.60;8.40;;;;;;;17.99;85.96;101853.94;108594;1254;95680;-61
2023/09/25 02:57:42;;;;;;;15.50;8.70;;;;;;;17.95;85.99;101854.61;108692;1251;96056;-61
2023/09/25 03:00:12;;;;;;;18.60;8.00;;;;;;;17.94;86.30;101855.48;108622;1252;112155;-62
2023/09/25 03:02:42;;;;;;;16.50;8.40;;;;;;;17.93;86.44;101855.23;108388;1255;109193;-60
2023/09/25 03:05:11;;;;;;;20.50;9.00;;;;;;;17.91;86.70;101856.69;108604;1257;107445;-61
2023/09/25 03:07:40;;;;;;;17.30;8.70;;;;;;;17.89;86.96;101852.75;108393;1253;97937;-61
2023/09/25 03:10:09;;;;;;;15.60;8.50;;;;;;;17.89;86.85;101855.13;107220;1254;97837;-61
2023/09/25 03:12:38;;;;;;;18.50;8.40;;;;;;;17.90;87.05;101859.93;107227;1257;112149;-61
2023/09/25 03:15:07;;;;;;;16.40;8.10;;;;;;;17.88;87.16;101861.89;107632;1254;109477;-61
2023/09/25 03:17:35;;;;;;;19.20;8.50;;;;;;;17.87;87.08;101865.50;108590;1254;107787;-61
2023/09/25 03:20:09;;;;;;;14.70;8.60;;;;;;;17.90;87.08;101865.38;107445;1258;97976;-61
2023/09/25 03:22:37;;;;;;;;;;;;;;;17.87;87.92;101868.41;108672;1254;95543;-61
2023/09/25 03:25:05;;;;;;;19.00;8.90;;;;;;;17.82;88.07;101869.77;108654;1253;110548;-61
2023/09/25 03:27:33;;;;;;;19.80;8.60;;;;;;;17.80;88.31;101871.08;108620;1252;109760;-60
2023/09/25 03:30:02;;;;;;;22.40;10.20;;;;;;;17.82;87.78;101871.55;108622;1253;108320;-61
2023/09/25 03:32:32;;;;;;;17.90;8.10;;;;;;;17.85;88.26;101875.81;108603;1253;95798;-61
2023/09/25 03:35:03;;;;;;;16.10;7.70;;;;;;;17.85;88.54;101875.98;108046;1253;95945;-61
2023/09/25 03:37:32;;;;;;;11.50;7.10;;;;;;;17.82;88.95;101878.08;108641;1254;110368;-61
2023/09/25 03:40:07;;;;;;;13.00;7.40;;;;;;;17.81;88.57;101883.30;108639;1253;109231;-60
2023/09/25 03:42:36;;;;;;;13.70;8.00;;;;;;;17.81;88.40;101882.14;108636;1253;106890;-61
2023/09/25 03:45:05;;;;;;;14.70;8.10;;;;;;;17.86;88.34;101888.02;108638;1251;95693;-59
2023/09/25 03:47:35;;;;;;;18.20;8.20;;;;;;;17.90;88.29;101886.54;108618;1254;96115;-61
2023/09/25 03:50:03;;;;;;;15.50;8.00;;;;;;;17.91;88.01;101882.60;108644;1256;110208;-60
2023/09/25 03:52:31;;;;;;;13.70;7.80;;;;;;;17.92;88.28;101884.33;108647;1251;109340;-61
2023/09/25 03:54:59;;;;;;;12.80;7.30;;;;;;;17.92;88.17;101888.30;108611;1251;106654;-61
2023/09/25 03:57:28;;;;;;;17.60;7.30;;;;;;;17.93;88.30;101891.20;108627;1251;95973;-61
2023/09/25 03:59:56;;;;;;;15.90;7.10;;;;;;;17.92;88.24;101885.80;108610;1253;96162;-61
2023/09/25 04:02:24;;;;;;;14.20;7.70;;;;;;;17.94;88.13;101893.02;108612;1251;112054;-60
2023/09/25 04:04:53;;;;;;;15.60;7.50;;;;;;;18.00;87.73;101899.39;108621;1251;109258;-60
2023/09/25 04:07:21;;;;;;;12.20;6.60;;;;;;;18.08;87.24;101902.04;107384;1254;106691;-61
2023/09/25 04:09:49;;;;;;;14.70;6.60;;;;;;;18.16;87.04;101904.96;107226;1254;97828;-62
2023/09/25 04:12:19;;;;;;;23.10;9.70;;;;;;;18.23;86.46;101903.77;108627;1251;96131;-61
2023/09/25 04:14:47;;;;;;;17.30;9.20;;;;;;;18.30;86.52;101906.28;108663;1251;112192;-61
2023/09/25 04:17:17;;;;;;;27.50;11.90;;;;;;;18.28;86.09;101905.92;108618;1251;110005;-60
2023/09/25 04:19:45;;;;;;;15.20;7.00;;;;;;;18.33;85.97;101911.06;107557;1251;106688;-60
2023/09/25 04:22:14;;;;;;;19.60;7.80;;;;;;;18.39;85.91;101918.27;107276;1251;97861;-60
2023/09/25 04:24:42;;;;;;;14.40;7.40;;;;;;;18.44;85.41;101920.05;108477;1253;96076;-61
2023/09/25 04:27:11;;;;;;;22.20;9.70;;;;;;;18.52;85.14;101915.27;107326;1251;111758;-60
2023/09/25 04:29:42;;;;;;;21.00;9.00;;;;;;;18.57;84.88;101918.71;107302;1251;109400;-60
2023/09/25 04:32:10;;;;;;;19.40;7.10;;;;;;;18.63;84.60;101920.48;107243;1257;107155;-61
2023/09/25 04:34:39;;;;;;;20.60;7.20;;;;;;;18.59;84.45;101919.92;107312;1253;98341;-63
2023/09/25 04:37:08;;;;;;;9.30;6.40;;;;;;;18.54;84.22;101925.98;107318;1251;97810;-61
2023/09/25 04:39:36;;;;;;;10.30;7.10;;;;;;;18.54;84.06;101928.36;107276;1254;111355;-61
2023/09/25 04:42:05;;;;;;;15.40;7.80;;;;;;;18.58;84.34;101931.20;107304;1257;110041;-60
2023/09/25 04:44:34;;;;;;;14.70;7.00;;;;;;;18.58;84.24;101932.45;108624;1251;107689;-60
2023/09/25 04:47:04;;;;;;;11.20;6.40;;;;;;;18.60;83.76;101935.88;108562;1254;95604;-61
2023/09/25 04:49:32;;;;;;;10.90;6.60;;;;;;;18.67;83.59;101932.44;108624;1254;96391;-60
2023/09/25 04:52:00;;;;;;;14.50;6.80;;;;;;;18.76;83.63;101931.86;107460;1254;111942;-60
2023/09/25 04:54:31;;;;;;;11.10;7.40;;;;;;;18.86;83.48;101932.60;107234;1257;110305;-61
2023/09/25 04:56:59;;;;;;;15.20;7.40;;;;;;;18.93;83.15;101932.83;107484;1254;108785;-60
2023/09/25 04:59:27;;;;;;;16.80;7.40;;;;;;;18.98;82.70;101932.62;107266;1257;98009;-60
2023/09/25 05:01:55;;;;;;;14.60;7.70;;;;;;;19.04;82.47;101934.86;107274;1254;97810;-62
2023/09/25 05:04:24;;;;;;;17.50;7.70;;;;;;;19.11;82.22;101941.40;107290;1254;111680;-62
2023/09/25 05:06:52;;;;;;;17.30;6.80;;;;;;;19.17;81.79;101948.86;108627;1251;109997;-60
2023/09/25 05:09:22;;;;;;;23.90;8.10;;;;;;;19.22;81.69;101946.63;108662;1252;108763;-62
2023/09/25 05:11:50;;;;;;;11.40;6.70;;;;;;;19.29;81.46;101946.62;108625;1254;95717;-62
2023/09/25 05:14:19;;;;;;;21.70;7.90;;;;;;;19.37;81.10;101940.52;107503;1254;97834;-61
2023/09/25 05:16:47;;;;;;;14.20;6.80;;;;;;;19.42;80.85;101941.27;107238;1254;111259;-62
2023/09/25 05:19:16;;;;;;;11.60;6.70;;;;;;;19.41;80.50;101945.91;107274;1257;109701;-61
2023/09/25 05:21:44;;;;;;;17.60;7.80;;;;;;;19.40;80.47;101948.70;107320;1256;108206;-60
2023/09/25 05:24:12;;;;;;;13.90;6.80;;;;;;;19.44;80.45;101950.31;107230;1251;97848;-61
2023/09/25 05:26:40;;;;;;;13.90;7.10;;;;;;;19.43;80.38;101952.04;107293;1257;97925;-59
2023/09/25 05:29:09;;;;;;;17.40;7.10;;;;;;;19.43;80.03;101953.89;107339;1251;111848;-60
2023/09/25 05:31:37;;;;;;;19.10;6.70;;;;;;;19.46;79.92;101954.48;107312;1254;109337;-61
2023/09/25 05:34:05;;;;;;;11.70;6.60;;;;;;;19.48;79.92;101953.30;107213;1254;107798;-60
2023/09/25 05:36:33;;;;;;;15.40;6.10;;;;;;;19.53;79.81;101956.59;107247;1251;97848;-61
2023/09/25 05:39:02;;;;;;;12.90;6.50;;;;;;;19.60;79.38;101958.37;107239;1251;98373;-61
2023/09/25 05:41:30;;;;;;;14.20;6.50;;;;;;;19.62;79.16;101956.23;107160;1254;112103;-62
2023/09/25 05:43:59;;;;;;;16.10;7.00;;;;;;;19.66;79.18;101961.25;107196;1252;110043;-61
2023/09/25 05:46:28;;;;;;;17.70;6.80;;;;;;;19.71;78.74;101954.13;107289;1256;107949;-61
2023/09/25 05:48:58;;;;;;;10.30;6.30;;;;;;;19.72;78.59;101960.08;107272;1252;97836;-61
2023/09/25 05:51:26;;;;;;;17.40;7.60;;;;;;;19.74;78.43;101962.55;107276;1254;97752;-60
2023/09/25 05:53:55;;;;;;;13.00;6.30;;;;;;;19.77;78.32;101963.08;107258;1254;111668;-61
2023/09/25 05:56:23;;;;;;;14.60;7.20;;;;;;;19.84;78.33;101966.34;107311;1256;109328;-60
2023/09/25 05:58:52;;;;;;;13.90;6.60;;;;;;;19.91;78.08;101967.32;107238;1254;108258;-60
2023/09/25 06:01:21;;;;;;;11.80;7.00;;;;;;;19.92;77.78;101971.76;108518;1253;95928;-61
2023/09/25 06:03:50;;;;;;;14.90;8.50;;;;;;;19.95;77.87;101975.05;108681;1251;96163;-61
2023/09/25 06:06:19;;;;;;;13.30;7.20;;;;;;;20.03;77.75;101977.92;108633;1253;110742;-61
2023/09/25 06:08:48;;;;;;;13.20;7.20;;;;;;;20.10;77.36;101981.38;108241;1253;109447;-60
2023/09/25 06:11:17;;;;;;;15.00;7.00;;;;;;;20.15;77.00;101982.84;108448;1251;107308;-61
2023/09/25 06:13:45;;;;;;;15.90;7.30;;;;;;;20.24;76.62;101986.61;107231;1254;97862;-61
2023/09/25 06:16:13;;;;;;;13.90;7.20;;;;;;;20.26;76.39;101986.57;107283;1253;97762;-60
2023/09/25 06:18:42;;;;;;;18.30;7.30;;;;;;;20.30;76.03;101984.70;107280;1254;111522;-59
2023/09/25 06:21:13;;;;;;;10.20;6.80;;;;;;;20.32;75.73;101990.39;107346;1254;109954;-60
2023/09/25 06:23:42;;;;;;;14.40;7.60;;;;;;;20.37;75.77;101987.92;107303;1251;107655;-60
2023/09/25 06:26:11;;;;;;;16.60;6.40;;;;;;;20.42;75.60;101990.60;108650;1251;95851;-61
2023/09/25 06:28:39;;;;;;;15.80;7.30;;;;;;;20.49;75.67;101990.94;108606;1251;96441;-61
2023/09/25 06:31:08;;;;;;;11.30;7.00;;;;;;;20.59;75.31;101993.20;108661;1251;110361;-61
2023/09/25 06:33:36;;;;;;;14.40;7.40;;;;;;;20.71;74.87;101997.43;108660;1251;109701;-61
2023/09/25 06:36:06;;;;;;;12.60;7.20;;;;;;;20.83;73.89;102000.86;107362;1254;108242;-61
2023/09/25 06:38:35;;;;;;;12.40;6.90;;;;;;;20.86;73.22;102000.74;108639;1251;95622;-61
2023/09/25 06:41:03;;;;;;;16.60;7.00;;;;;;;20.91;73.44;102001.75;108316;1251;95839;-62
2023/09/25 06:43:32;;;;;;;16.20;7.00;;;;;;;21.00;73.06;102001.53;107249;1256;112192;-60
2023/09/25 06:46:00;;;;;;;14.90;7.00;;;;;;;21.05;72.67;102006.40;107313;1251;108815;-61
2023/09/25 06:48:28;;;;;;;17.90;7.00;;;;;;;21.16;72.97;102004.66;107317;1251;108381;-60
2023/09/25 06:50:57;;;;;;;17.10;7.70;;;;;;;21.28;72.44;102005.98;107310;1251;97947;-62
2023/09/25 06:53:25;;;;;;;15.50;6.50;;;;;;;21.38;71.74;102008.98;107295;1253;98380;-61
2023/09/25 06:55:53;;;;;;;13.60;6.40;;;;;;;21.40;71.22;102009.69;107338;1253;112160;-59
2023/09/25 06:58:22;;;;;;;13.30;6.50;;;;;;;21.42;71.38;102011.67;107282;1254;109269;-62
2023/09/25 07:00:50;;;;;;;17.10;7.20;;;;;;;21.46;71.05;102012.30;107290;1251;108423;-60
2023/09/25 07:03:26;;;;;;;19.10;7.70;;;;;;;21.49;71.02;102013.02;107297;1253;97724;-60
2023/09/25 07:05:56;;;;;;;13.80;6.80;;;;;;;21.49;70.84;102018.81;107295;1254;98445;-59
2023/09/25 07:08:25;;;;;;;17.90;7.00;;;;;;;21.54;70.74;102019.34;108641;1253;110662;-61
2023/09/25 07:10:54;;;;;;;18.50;7.30;;;;;;;21.60;70.65;102017.45;108680;1251;110620;-60
2023/09/25 07:13:22;;;;;;;14.00;6.80;;;;;;;21.67;70.04;102026.11;107620;1253;108759;-62
2023/09/25 07:15:50;;;;;;;16.60;7.20;;;;;;;21.66;70.04;102021.05;107258;1254;97829;-60
2023/09/25 07:18:19;;;;;;;15.70;7.30;;;;;;;21.74;70.39;102021.29;108598;1253;96252;-59
2023/09/25 07:20:53;;;;;;;11.30;6.30;;;;;;;21.87;69.95;102023.58;107863;1253;112079;-61
2023/09/25 07:23:22;;;;;;;11.50;7.20;;;;;;;22.00;69.49;102026.67;108690;1253;109519;-60
2023/09/25 07:25:59;;;;;;;19.50;8.00;;;;;;;22.00;68.61;102024.31;108646;1253;107779;-59
2023/09/25 07:28:27;;;;;;;16.40;6.90;;;;;;;22.01;68.82;102025.36;108660;1252;95659;-60
2023/09/25 07:30:56;;;;;;;22.50;7.00;;;;;;;22.10;68.44;102032.07;108620;1253;96055;-60
2023/09/25 07:33:24;;;;;;;20.50;7.00;;;;;;;22.10;67.33;102031.33;107718;1252;112178;-59
2023/09/25 07:35:54;;;;;;;14.70;7.10;;;;;;;22.15;67.67;102030.70;107747;1253;109520;-61
2023/09/25 07:38:23;;;;;;;24.70;7.50;;;;;;;22.20;67.41;102028.14;108496;1254;106215;-61
2023/09/25 07:40:52;;;;;;;16.50;6.80;;;;;;;22.29;66.90;102026.02;107244;1253;97832;-58
2023/09/25 07:43:29;;;;;;;13.30;7.40;;;;;;;22.41;66.08;102029.73;108625;1252;96033;-61
2023/09/25 07:46:01;;;;;;;15.90;7.40;;;;;;;22.48;65.55;102034.56;108687;1253;111917;-60
2023/09/25 07:48:30;;;;;;;14.10;6.60;;;;;;;22.56;65.70;102037.85;107970;1254;109107;-59
2023/09/25 07:50:59;;;;;;;20.50;7.50;;;;;;;22.64;65.62;102040.35;107309;1254;108049;-59
2023/09/25 07:53:30;;;;;;;19.80;6.90;;;;;;;22.71;65.27;102038.40;107283;1253;97896;-58
2023/09/25 07:55:59;;;;;;;15.40;7.10;;;;;;;22.69;64.44;102043.55;107296;1255;98456;-60
2023/09/25 07:58:27;;;;;;;17.20;6.70;;;;;;;22.66;64.62;102043.14;108645;1252;111699;-57
2023/09/25 08:01:07;;;;;;;13.90;7.00;;;;;;;22.77;64.46;102045.45;108642;1254;108263;-59
2023/09/25 08:03:37;;;;;;;19.60;8.00;;;;;;;22.93;62.55;102044.86;108633;1253;108200;-59
2023/09/25 08:06:07;;;;;;;20.30;7.20;;;;;;;23.01;61.83;102047.63;108630;1253;95849;-59
2023/09/25 08:08:35;;;;;;;20.90;8.20;;;;;;;23.06;61.97;102046.44;108653;1253;96065;-59
2023/09/25 08:11:03;;;;;;;17.70;8.00;;;;;;;23.21;60.74;102050.27;108236;1252;111330;-59
2023/09/25 08:13:31;;;;;;;17.50;8.00;;;;;;;23.32;60.49;102046.04;107285;1254;108679;-58
2023/09/25 08:16:06;;;;;;;14.60;7.60;;;;;;;23.44;60.92;102050.04;107268;1253;107576;-58
2023/09/25 08:18:35;;;;;;;13.50;7.70;;;;;;;23.58;60.96;102043.75;108592;1253;96125;-58
2023/09/25 08:21:06;;;;;;;15.20;8.10;;;;;;;23.74;60.83;102037.82;107272;1254;98400;-58
2023/09/25 08:23:34;;;;;;;19.90;8.40;;;;;;;23.93;60.41;102042.31;107238;1252;111617;-57
2023/09/25 08:26:05;;;;;;;20.20;6.80;;;;;;;24.11;60.13;102044.05;107287;1254;109314;-58
2023/09/25 08:28:34;;;;;;;25.90;7.60;;;;;;;24.27;58.86;102039.34;107301;1254;107373;-59
2023/09/25 08:31:02;;;;;;;21.10;7.00;;;;;;;24.40;58.16;102039.59;107298;1251;97815;-58
2023/09/25 08:33:31;;;;;;;19.10;7.00;;;;;;;24.54;57.76;102039.53;107349;1254;97838;-58
2023/09/25 08:36:00;;;;;;;13.90;6.70;;;;;;;24.71;57.48;102036.48;108677;1251;111930;-58
2023/09/25 08:38:28;;;;;;;16.50;7.40;;;;;;;24.82;56.26;102040.13;108534;1251;109793;-58
2023/09/25 08:40:57;;;;;;;16.80;8.00;;;;;;;24.99;56.16;102036.08;107275;1253;107632;-59
2023/09/25 08:43:28;;;;;;;16.60;7.20;;;;;;;25.15;55.42;102027.38;108099;1253;96389;-58
2023/09/25 08:45:57;;;;;;;22.80;7.10;;;;;;;25.37;55.43;102028.77;107301;1254;98209;-59
2023/09/25 08:48:26;;;;;;;19.80;6.20;;;;;;;25.59;54.28;102018.31;107243;1251;111790;-59
2023/09/25 08:50:55;;;;;;;21.50;6.40;;;;;;;25.76;52.90;102022.87;107297;1252;109959;-59
2023/09/25 08:53:24;;;;;;;30.20;8.10;;;;;;;25.93;52.76;102026.82;107291;1254;108459;-58
2023/09/25 08:55:52;;;;;;;20.40;7.50;;;;;;;26.16;52.88;102026.54;107212;1256;98026;-60
2023/09/25 08:58:24;;;;;;;18.00;7.00;;;;;;;26.42;52.70;102026.09;107219;1254;98214;-60
2023/09/25 09:00:53;;;;;;;21.40;10.20;;;;;;;26.69;50.58;102025.38;108601;1251;112189;-60
2023/09/25 09:03:23;;;;;;;22.00;7.00;;;;;;;26.89;49.84;102024.98;107237;1254;109680;-60
2023/09/25 09:05:53;;;;;;;21.50;6.60;;;;;;;27.18;47.49;102023.52;107216;1251;107854;-60
2023/09/25 09:08:21;;;;;;;13.60;6.40;;;;;;;27.46;47.87;102024.20;108663;1251;95728;-59
2023/09/25 09:10:49;;;;;;;22.60;6.40;;;;;;;27.72;47.00;102017.33;108664;1251;96026;-59
2023/09/25 09:13:22;;;;;;;23.50;7.20;;;;;;;28.03;45.84;102020.50;108658;1253;110246;-59
2023/09/25 09:15:50;;;;;;;16.90;5.90;;;;;;;28.41;44.53;102020.19;108645;1251;108738;-59
2023/09/25 09:18:24;;;;;;;16.50;6.80;;;;;;;29.16;44.43;102016.70;108648;1251;108603;-59
2023/09/25 09:20:55;;;;;;;20.90;5.80;;;;;;;30.02;41.04;102009.65;108599;1251;96392;-58
2023/09/25 09:23:42;;;;;;;15.50;5.00;;;;;;;30.68;40.47;102016.31;108660;1251;96158;-61
2023/09/25 09:26:14;;;;;;;24.30;5.60;;;;;;;31.38;39.01;102015.15;108677;1252;112194;-60
2023/09/25 09:28:43;;;;;;;19.20;4.90;;;;;;;32.07;39.26;102009.17;108691;1252;108761;-60
2023/09/25 09:31:14;;;;;;;16.10;4.90;;;;;;;32.73;37.13;102008.93;108634;1253;107938;-59
2023/09/25 09:33:42;;;;;;;16.10;4.60;;;;;;;33.13;34.98;102009.43;108329;1255;97839;-60
2023/09/25 09:36:12;;;;;;;15.30;5.30;;;;;;;33.62;34.18;102008.38;108670;1251;96097;-58
2023/09/25 09:38:42;;;;;;;13.80;4.10;;;;;;;34.03;32.95;102006.39;107273;1251;112822;-62
2023/09/25 09:41:13;;;;;;;14.40;4.30;;;;;;;34.54;32.10;102005.64;107233;1251;110011;-63
2023/09/25 09:43:41;;;;;;;17.40;4.50;;;;;;;35.00;31.44;102001.34;107238;1251;108646;-63
2023/09/25 09:46:11;;;;;;;14.80;4.10;;;;;;;35.51;31.88;101998.80;107273;1254;97870;-62
2023/09/25 09:48:44;;;;;;;10.90;3.70;;;;;;;36.13;30.52;101995.66;108624;1251;96083;-62
2023/09/25 09:51:16;;;;;;;10.40;3.80;;;;;;;36.60;29.40;101992.77;107996;1254;109465;-62
2023/09/25 09:53:45;;;;;;;11.80;4.10;;;;;;;37.07;29.42;101992.58;107261;1253;109577;-62
2023/09/25 09:56:16;;;;;;;16.60;4.50;;;;;;;37.49;29.12;101988.45;107306;1256;107452;-62
2023/09/25 09:58:47;;;;;;;16.70;4.30;;;;;;;37.96;27.24;101980.55;108564;1251;95648;-62
2023/09/25 10:01:17;;;;;;;15.90;4.10;;;;;;;38.08;26.65;101981.92;108681;1253;95692;-64
2023/09/25 10:03:47;;;;;;;12.10;3.70;;;;;;;38.36;26.78;101975.67;108680;1251;111825;-63
2023/09/25 10:06:16;;;;;;;16.70;4.20;;;;;;;38.54;25.21;101971.66;108669;1251;108935;-62
2023/09/25 10:09:08;;;;;;;10.10;3.70;;;;;;;38.76;25.88;101968.27;108098;1253;239745;-62
2023/09/25 10:11:36;;;;;;;11.90;4.10;;;;;;;39.32;25.23;101967.56;107302;1254;97977;-63
2023/09/25 10:14:08;;;;;;;15.00;3.80;;;;;;;39.70;24.61;101962.33;107279;1253;97902;-62
2023/09/25 10:17:00;;;;;;;8.20;3.80;;;;;;;39.93;24.23;101959.20;107309;1254;111858;-63
2023/09/25 10:19:41;;;;;;;17.90;3.90;;;;;;;40.08;23.57;101959.33;107229;1251;108831;-62
2023/09/25 10:22:22;;;;;;;15.30;3.90;;;;;;;40.25;23.10;101956.96;107311;1251;107822;-62
2023/09/25 10:25:12;;;;;;;21.30;4.70;;;;;;;40.38;22.89;101948.98;107317;1251;97883;-63
2023/09/25 10:27:43;;;;;;;13.20;4.20;;;;;;;40.83;23.40;101947.31;108634;1251;96073;-62
2023/09/25 10:30:15;;;;;;;21.40;4.30;;;;;;;41.09;23.13;101943.55;108652;1253;112457;-62
2023/09/25 10:32:52;;;;;;;15.30;3.70;;;;;;;41.35;22.32;101938.88;108643;1251;109811;-62
2023/09/25 10:35:37;;;;;;;14.60;3.60;;;;;;;41.63;21.80;101939.36;108666;1252;108451;-62
2023/09/25 10:38:12;;;;;;;14.90;3.10;;;;;;;41.98;21.47;101933.16;108043;1253;97867;-63
2023/09/25 10:40:49;;;;;;;9.00;3.40;;;;;;;42.15;19.71;101928.30;107254;1251;97722;-62
2023/09/25 10:43:20;;;;;;;10.80;3.20;;;;;;;42.04;20.02;101922.61;108603;1253;111611;-62
2023/09/25 10:45:50;;;;;;;11.50;3.30;;;;;;;42.06;20.22;101917.70;108662;1251;108695;-62
2023/09/25 10:48:19;;;;;;;14.70;3.00;;;;;;;42.30;20.37;101914.44;108538;1252;107141;-61
2023/09/25 10:50:49;;;;;;;10.30;3.40;;;;;;;42.50;18.64;101906.98;108602;1253;95666;-62
2023/09/25 10:53:17;;;;;;;13.50;2.80;;;;;;;42.37;19.04;101904.63;108666;1251;96536;-61
2023/09/25 10:55:47;;;;;;;16.10;3.70;;;;;;;42.50;18.99;101899.68;108671;1251;111584;-61
2023/09/25 10:58:17;;;;;;;11.80;3.00;;;;;;;42.62;18.65;101898.73;108649;1251;109228;-62
2023/09/25 11:00:49;;;;;;;10.70;2.70;;;;;;;42.92;18.86;101901.33;108654;1251;106207;-61
2023/09/25 11:03:18;;;;;;;14.00;3.10;;;;;;;43.29;18.56;101898.36;108673;1251;95595;-61
2023/09/25 11:05:48;;;;;;;18.70;3.00;;;;;;;43.47;18.55;101896.10;108664;1253;96131;-62
2023/09/25 11:08:18;;;;;;;15.90;2.80;;;;;;;43.74;18.17;101889.89;108642;1251;110797;-62
2023/09/25 11:10:47;;;;;;;12.00;2.70;;;;;;;43.85;16.21;101891.47;108685;1251;109863;-63
2023/09/25 11:13:16;;;;;;;13.20;2.80;;;;;;;43.38;16.50;101891.15;108638;1255;108644;-62
2023/09/25 11:15:45;;;;;;;11.90;3.30;;;;;;;43.11;17.46;101889.75;107948;1254;97864;-63